createdAt,value
2018-02-23T00:00:42.109Z,-0.50
2018-02-23T00:03:11.087Z,-0.50
2018-02-23T00:05:40.829Z,-0.50
2018-02-23T00:08:09.814Z,-0.60
2018-02-23T00:10:38.788Z,-0.60
2018-02-23T00:13:07.945Z,-0.60
2018-02-23T00:15:37.332Z,-0.60
2018-02-23T00:18:07.089Z,-0.60
2018-02-23T00:20:36.033Z,-0.50
2018-02-23T00:23:05.862Z,-0.50
2018-02-23T00:25:35.600Z,-0.50
2018-02-23T00:28:04.552Z,-0.50
2018-02-23T00:30:34.309Z,-0.50
2018-02-23T00:33:03.266Z,-0.60
2018-02-23T00:35:32.649Z,-0.50
2018-02-23T00:38:02.373Z,-0.60
2018-02-23T00:40:31.750Z,-0.70
2018-02-23T00:43:01.491Z,-0.70
2018-02-23T00:45:30.846Z,-0.70
2018-02-23T00:48:00.585Z,-0.70
2018-02-23T00:50:30.308Z,-0.70
2018-02-23T00:52:59.656Z,-0.70
2018-02-23T00:55:28.649Z,-0.70
2018-02-23T00:57:58.466Z,-0.80
2018-02-23T01:00:28.189Z,-0.70
2018-02-23T01:02:57.541Z,-0.70
2018-02-23T01:05:26.570Z,-0.70
2018-02-23T01:07:56.312Z,-0.70
2018-02-23T01:10:26.080Z,-0.70
2018-02-23T01:12:55.426Z,-0.70
2018-02-23T01:15:25.158Z,-0.60
2018-02-23T01:17:54.534Z,-0.70
2018-02-23T01:20:24.260Z,-0.60
2018-02-23T01:22:53.997Z,-0.60
2018-02-23T01:25:23.372Z,-0.60
2018-02-23T01:27:52.334Z,-0.50
2018-02-23T01:30:22.809Z,-0.40
2018-02-23T01:32:51.907Z,-0.30
2018-02-23T01:35:21.637Z,-0.10
2018-02-23T01:37:50.595Z,-0.10
2018-02-23T01:40:20.817Z,0.00
2018-02-23T01:42:49.761Z,0.10
2018-02-23T01:45:18.729Z,0.10
2018-02-23T01:47:48.485Z,0.10
2018-02-23T01:50:18.240Z,0.20
2018-02-23T01:52:47.226Z,0.30
2018-02-23T01:55:16.179Z,0.30
2018-02-23T01:57:45.946Z,0.30
2018-02-23T02:00:14.924Z,0.30
2018-02-23T02:02:44.644Z,0.30
2018-02-23T02:05:13.848Z,0.30
2018-02-23T02:07:43.565Z,0.30
2018-02-23T02:10:13.188Z,0.30
2018-02-23T02:12:42.522Z,0.40
2018-02-23T02:15:11.524Z,0.30
2018-02-23T02:17:40.514Z,0.40
2018-02-23T02:20:09.493Z,0.50
2018-02-23T02:22:39.277Z,0.50
2018-02-23T02:25:08.621Z,0.60
2018-02-23T02:27:38.409Z,0.60
2018-02-23T02:30:08.527Z,0.50
2018-02-23T02:32:38.972Z,0.40
2018-02-23T02:35:08.737Z,0.50
2018-02-23T02:37:39.233Z,0.50
2018-02-23T02:40:08.177Z,0.50
2018-02-23T02:42:37.884Z,0.50
2018-02-23T02:45:08.025Z,0.70
2018-02-23T02:47:37.786Z,0.60
2018-02-23T02:50:06.771Z,0.60
2018-02-23T02:52:35.718Z,0.60
2018-02-23T02:55:04.701Z,0.60
2018-02-23T02:57:34.404Z,0.60
2018-02-23T03:00:04.170Z,0.70
2018-02-23T03:02:33.118Z,0.60
2018-02-23T03:05:02.877Z,0.60
2018-02-23T03:07:31.928Z,0.60
2018-02-23T03:10:01.400Z,0.60
2018-02-23T03:12:30.362Z,0.70
2018-02-23T03:14:59.721Z,0.70
2018-02-23T03:17:28.727Z,0.60
2018-02-23T03:19:57.661Z,0.70
2018-02-23T03:22:26.604Z,0.70
2018-02-23T03:24:55.584Z,0.70
2018-02-23T03:27:25.322Z,0.70
2018-02-23T03:29:54.263Z,0.60
2018-02-23T03:32:23.614Z,0.70
2018-02-23T03:34:52.582Z,1.10
2018-02-23T03:37:22.334Z,0.70
2018-02-23T03:39:51.690Z,0.80
2018-02-23T03:42:21.429Z,0.80
2018-02-23T03:44:50.415Z,0.80
2018-02-23T03:47:19.384Z,0.90
2018-02-23T03:49:49.095Z,0.80
2018-02-23T03:52:18.459Z,0.80
2018-02-23T03:54:47.407Z,0.80
2018-02-23T03:57:16.366Z,0.80
2018-02-23T03:59:46.114Z,0.80
2018-02-23T04:02:15.069Z,0.90
2018-02-23T04:04:44.880Z,0.90
2018-02-23T04:07:13.801Z,0.90
2018-02-23T04:09:42.771Z,0.90
2018-02-23T04:12:12.494Z,0.90
2018-02-23T04:14:41.975Z,0.90
2018-02-23T04:17:11.350Z,0.90
2018-02-23T04:19:40.649Z,0.90
2018-02-23T04:22:09.627Z,0.90
2018-02-23T04:24:38.589Z,0.90
2018-02-23T04:27:07.560Z,0.90
2018-02-23T04:29:36.914Z,0.80
2018-02-23T04:32:05.872Z,0.90
2018-02-23T04:34:36.781Z,0.90
2018-02-23T04:37:06.198Z,0.80
2018-02-23T04:39:35.926Z,0.90
2018-02-23T04:42:04.870Z,0.90
2018-02-23T04:44:34.113Z,0.90
2018-02-23T04:47:03.474Z,0.80
2018-02-23T04:49:32.412Z,0.70
2018-02-23T04:52:01.390Z,0.70
2018-02-23T04:54:30.463Z,0.90
2018-02-23T04:56:59.818Z,0.80
2018-02-23T04:59:29.178Z,0.80
2018-02-23T05:01:58.546Z,0.80
2018-02-23T05:04:27.493Z,0.80
2018-02-23T05:06:56.533Z,0.90
2018-02-23T05:09:25.599Z,0.90
2018-02-23T05:11:55.333Z,0.90
2018-02-23T05:14:24.306Z,0.90
2018-02-23T05:16:53.277Z,0.80
2018-02-23T05:19:22.717Z,0.80
2018-02-23T05:21:51.744Z,0.80
2018-02-23T05:24:20.683Z,0.70
2018-02-23T05:26:49.628Z,0.70
2018-02-23T05:29:19.018Z,0.70
2018-02-23T05:31:48.814Z,0.70
2018-02-23T05:34:18.157Z,0.80
2018-02-23T05:36:47.177Z,0.90
2018-02-23T05:39:16.285Z,0.80
2018-02-23T05:41:45.630Z,0.80
2018-02-23T05:44:14.720Z,0.80
2018-02-23T05:46:44.470Z,0.80
2018-02-23T05:49:13.464Z,0.80
2018-02-23T05:51:42.432Z,0.80
2018-02-23T05:54:12.454Z,0.80
2018-02-23T05:56:41.401Z,0.80
2018-02-23T05:59:10.762Z,0.80
2018-02-23T06:01:39.733Z,0.70
2018-02-23T06:04:08.698Z,0.70
2018-02-23T06:06:38.517Z,0.70
2018-02-23T06:09:08.651Z,0.70
2018-02-23T06:11:38.386Z,0.70
2018-02-23T06:14:07.489Z,0.70
2018-02-23T06:16:36.488Z,0.70
2018-02-23T06:19:05.452Z,0.60
2018-02-23T06:21:34.923Z,0.70
2018-02-23T06:24:05.360Z,0.60
2018-02-23T06:26:34.401Z,0.50
2018-02-23T06:29:03.340Z,0.60
2018-02-23T06:31:32.722Z,0.70
2018-02-23T06:34:02.450Z,0.70
2018-02-23T06:36:32.322Z,0.80
2018-02-23T06:39:01.621Z,0.80
2018-02-23T06:41:30.652Z,0.80
2018-02-23T06:43:59.821Z,0.80
2018-02-23T06:46:28.751Z,0.90
2018-02-23T06:48:57.693Z,0.80
2018-02-23T06:51:26.708Z,0.80
2018-02-23T06:53:55.757Z,0.90
2018-02-23T06:56:24.810Z,1.00
2018-02-23T06:58:53.956Z,1.00
2018-02-23T07:01:23.696Z,1.00
2018-02-23T07:03:52.663Z,1.10
2018-02-23T07:06:22.414Z,1.20
2018-02-23T07:08:51.781Z,1.30
2018-02-23T07:11:20.732Z,1.40
2018-02-23T07:13:50.359Z,1.50
2018-02-23T07:16:19.424Z,1.50
2018-02-23T07:18:50.524Z,1.50
2018-02-23T07:21:19.544Z,1.50
2018-02-23T07:23:49.305Z,1.50
2018-02-23T07:26:18.487Z,1.50
2018-02-23T07:28:47.564Z,1.50
2018-02-23T07:31:18.044Z,1.60
2018-02-23T07:33:47.698Z,1.60
2018-02-23T07:36:18.689Z,1.60
2018-02-23T07:38:47.765Z,1.60
2018-02-23T07:41:18.048Z,1.60
2018-02-23T07:43:47.818Z,1.70
2018-02-23T07:46:18.494Z,1.70
2018-02-23T07:48:48.409Z,1.60
2018-02-23T07:51:18.188Z,1.50
2018-02-23T07:53:47.676Z,1.40
2018-02-23T07:56:17.449Z,1.50
2018-02-23T07:58:47.092Z,1.70
2018-02-23T08:01:16.062Z,1.70
2018-02-23T08:03:46.569Z,1.70
2018-02-23T08:06:15.961Z,1.70
2018-02-23T08:08:45.726Z,1.80
2018-02-23T08:11:15.474Z,1.80
2018-02-23T08:13:45.417Z,1.70
2018-02-23T08:16:14.778Z,1.90
2018-02-23T08:18:44.580Z,1.90
2018-02-23T08:21:14.219Z,1.90
2018-02-23T08:23:44.781Z,1.80
2018-02-23T08:26:14.122Z,1.90
2018-02-23T08:28:43.071Z,1.20
2018-02-23T08:31:13.166Z,2.00
2018-02-23T08:33:45.378Z,2.00
2018-02-23T08:36:15.677Z,2.10
2018-02-23T08:38:44.956Z,2.20
2018-02-23T08:41:14.391Z,2.20
2018-02-23T08:43:44.421Z,2.20
2018-02-23T08:46:13.862Z,2.20
2018-02-23T08:48:43.755Z,2.20
2018-02-23T08:51:14.977Z,2.20
2018-02-23T08:53:43.947Z,2.10
2018-02-23T08:56:15.185Z,2.10
2018-02-23T08:58:46.133Z,2.10
2018-02-23T09:01:15.931Z,2.30
2018-02-23T09:03:44.965Z,2.40
2018-02-23T09:06:16.188Z,2.50
2018-02-23T09:08:45.607Z,2.50
2018-02-23T09:11:14.650Z,2.50
2018-02-23T09:13:44.512Z,2.50
2018-02-23T09:16:15.010Z,2.50
2018-02-23T09:18:44.798Z,2.60
2018-02-23T09:21:14.584Z,2.60
2018-02-23T09:23:43.568Z,2.60
2018-02-23T09:26:12.515Z,2.50
2018-02-23T09:28:42.058Z,2.60
2018-02-23T09:31:12.737Z,2.80
2018-02-23T09:33:54.332Z,2.70
2018-02-23T09:36:25.392Z,2.90
2018-02-23T09:38:55.185Z,2.80
2018-02-23T09:41:26.731Z,2.80
2018-02-23T09:43:55.736Z,2.80
2018-02-23T09:46:24.717Z,2.80
2018-02-23T09:48:55.269Z,2.90
2018-02-23T09:51:24.624Z,3.00
2018-02-23T09:53:53.592Z,2.40
2018-02-23T09:56:22.569Z,3.00
2018-02-23T09:58:52.149Z,3.00
2018-02-23T10:01:21.190Z,3.00
2018-02-23T10:03:50.541Z,3.10
2018-02-23T10:06:19.604Z,3.20
2018-02-23T10:08:49.053Z,3.30
2018-02-23T10:11:21.293Z,3.40
2018-02-23T10:13:50.646Z,3.30
2018-02-23T10:16:19.659Z,3.30
2018-02-23T10:18:48.707Z,3.30
2018-02-23T10:21:18.426Z,3.50
2018-02-23T10:23:47.397Z,3.60
2018-02-23T10:26:17.542Z,3.90
2018-02-23T10:28:47.321Z,4.10
2018-02-23T10:33:52.538Z,4.40
2018-02-23T10:36:27.681Z,4.50
2018-02-23T10:38:56.733Z,4.60
2018-02-23T10:41:26.107Z,4.60
2018-02-23T10:43:57.479Z,4.60
2018-02-23T10:46:28.083Z,4.60
2018-02-23T10:48:57.870Z,4.50
2018-02-23T10:51:27.296Z,4.30
2018-02-23T10:53:57.101Z,4.40
2018-02-23T10:56:26.886Z,4.30
2018-02-23T10:58:56.571Z,4.10
2018-02-23T11:01:26.969Z,4.20
2018-02-23T11:03:57.041Z,4.20
2018-02-23T11:06:26.096Z,4.20
2018-02-23T11:08:55.111Z,4.30
2018-02-23T11:11:24.502Z,4.30
2018-02-23T11:13:53.910Z,4.30
2018-02-23T11:16:25.566Z,4.30
2018-02-23T11:18:54.756Z,4.30
2018-02-23T11:21:23.743Z,4.10
2018-02-23T11:23:52.712Z,4.10
2018-02-23T11:26:22.502Z,4.10
2018-02-23T11:28:52.371Z,4.40
2018-02-23T11:31:21.375Z,4.60
2018-02-23T11:33:50.787Z,4.70
2018-02-23T11:36:19.804Z,4.70
2018-02-23T11:38:49.595Z,4.60
2018-02-23T11:41:19.711Z,4.70
2018-02-23T11:43:50.505Z,4.70
2018-02-23T11:46:20.277Z,4.90
2018-02-23T11:48:50.031Z,4.90
2018-02-23T11:51:19.522Z,4.80
2018-02-23T11:53:48.505Z,4.70
2018-02-23T11:56:17.495Z,5.00
2018-02-23T11:58:46.475Z,5.20
2018-02-23T12:01:16.681Z,5.50
2018-02-23T12:03:46.903Z,5.50
2018-02-23T12:06:16.318Z,5.50
2018-02-23T12:08:45.761Z,5.70
2018-02-23T12:11:14.901Z,6.30
2018-02-23T12:13:44.021Z,6.50
2018-02-23T12:16:13.802Z,6.60
2018-02-23T12:18:43.678Z,7.10
2018-02-23T12:21:14.350Z,7.50
2018-02-23T12:23:43.326Z,8.10
2018-02-23T12:26:13.625Z,8.70
2018-02-23T12:28:43.037Z,8.80
2018-02-23T12:31:12.421Z,8.90
2018-02-23T12:33:41.435Z,9.40
2018-02-23T12:36:10.494Z,9.80
2018-02-23T12:38:39.846Z,10.70
2018-02-23T12:41:09.563Z,10.80
2018-02-23T12:43:39.362Z,11.40
2018-02-23T12:46:08.468Z,11.60
2018-02-23T12:48:37.433Z,11.70
2018-02-23T12:51:06.386Z,11.30
2018-02-23T12:53:35.447Z,11.70
2018-02-23T12:56:04.436Z,12.00
2018-02-23T12:58:33.766Z,12.30
2018-02-23T13:01:03.473Z,11.60
2018-02-23T13:03:32.448Z,11.20
2018-02-23T13:06:02.354Z,11.40
2018-02-23T13:08:31.310Z,11.20
2018-02-23T13:11:00.295Z,11.30
2018-02-23T13:13:29.270Z,11.60
2018-02-23T13:15:58.252Z,11.90
2018-02-23T13:18:27.726Z,12.70
2018-02-23T13:20:56.822Z,13.10
2018-02-23T13:23:26.546Z,13.00
2018-02-23T13:25:55.956Z,13.40
2018-02-23T13:28:30.959Z,14.00
2018-02-23T13:30:59.890Z,13.90
2018-02-23T13:33:28.835Z,13.50
2018-02-23T13:35:57.881Z,13.20
2018-02-23T13:38:26.898Z,13.10
2018-02-23T13:41:01.621Z,12.80
2018-02-23T13:43:30.635Z,13.00
2018-02-23T13:45:59.585Z,13.20
2018-02-23T13:48:28.544Z,13.70
2018-02-23T13:50:58.295Z,14.40
2018-02-23T13:56:27.648Z,14.50
2018-02-23T13:58:56.997Z,15.30
2018-02-23T14:01:26.136Z,15.50
2018-02-23T14:03:55.474Z,15.80
2018-02-23T14:06:30.608Z,16.10
2018-02-23T14:09:00.052Z,16.10
2018-02-23T14:11:29.026Z,15.80
2018-02-23T14:13:59.747Z,15.20
2018-02-23T14:16:28.733Z,14.90
2018-02-23T14:18:58.533Z,14.00
2018-02-23T14:21:28.305Z,13.80
2018-02-23T14:23:58.061Z,13.20
2018-02-23T14:26:28.514Z,12.50
2018-02-23T14:28:57.985Z,12.70
2018-02-23T14:31:26.943Z,13.50
2018-02-23T14:33:55.937Z,14.70
2018-02-23T14:36:25.301Z,15.50
2018-02-23T14:38:54.289Z,15.60
2018-02-23T14:41:23.653Z,15.50
2018-02-23T14:43:52.644Z,14.60
2018-02-23T14:46:22.378Z,14.90
2018-02-23T14:49:03.681Z,15.50
2018-02-23T14:51:32.654Z,16.00
2018-02-23T14:54:02.038Z,16.40
2018-02-23T14:56:31.412Z,16.50
2018-02-23T14:59:01.954Z,16.70
2018-02-23T15:01:31.868Z,17.10
2018-02-23T15:04:02.326Z,16.70
2018-02-23T15:06:32.210Z,16.10
2018-02-23T15:09:01.622Z,16.00
2018-02-23T15:11:31.023Z,15.90
2018-02-23T15:14:01.475Z,15.60
2018-02-23T15:16:30.513Z,15.20
2018-02-23T15:18:59.545Z,14.40
2018-02-23T15:21:28.586Z,13.70
2018-02-23T15:23:58.418Z,12.70
2018-02-23T15:26:27.884Z,11.00
2018-02-23T15:28:57.764Z,9.70
2018-02-23T15:31:38.674Z,8.80
2018-02-23T15:34:07.636Z,7.80
2018-02-23T15:36:37.470Z,7.30
2018-02-23T15:39:06.826Z,6.80
2018-02-23T15:41:35.875Z,6.30
2018-02-23T15:44:04.963Z,6.20
2018-02-23T15:46:34.733Z,5.70
2018-02-23T15:49:09.701Z,5.40
2018-02-23T15:51:57.447Z,5.90
2018-02-23T15:54:26.639Z,5.10
2018-02-23T15:56:55.629Z,4.90
2018-02-23T15:59:24.610Z,4.80
2018-02-23T16:01:53.615Z,4.70
2018-02-23T16:04:22.557Z,4.50
2018-02-23T16:06:52.340Z,4.40
2018-02-23T16:09:21.441Z,4.40
2018-02-23T16:11:51.717Z,4.30
2018-02-23T16:14:22.685Z,4.20
2018-02-23T16:16:52.626Z,4.20
2018-02-23T16:19:22.478Z,4.10
2018-02-23T16:21:52.240Z,3.90
2018-02-23T16:24:21.589Z,3.80
2018-02-23T16:26:50.550Z,3.60
2018-02-23T16:29:19.625Z,3.50
2018-02-23T16:31:48.621Z,3.50
2018-02-23T16:34:17.733Z,3.40
2018-02-23T16:36:47.165Z,3.30
2018-02-23T16:39:17.914Z,3.20
2018-02-23T16:41:48.013Z,3.20
2018-02-23T16:44:17.381Z,3.10
2018-02-23T16:46:47.759Z,3.00
2018-02-23T16:49:17.117Z,2.90
2018-02-23T16:51:47.264Z,2.80
2018-02-23T16:54:17.470Z,2.70
2018-02-23T16:56:47.564Z,2.60
2018-02-23T16:59:16.521Z,2.60
2018-02-23T17:01:45.541Z,2.60
2018-02-23T17:04:14.546Z,2.60
2018-02-23T17:06:43.896Z,2.50
2018-02-23T17:09:12.883Z,2.50
2018-02-23T17:11:42.633Z,2.40
2018-02-23T17:14:12.754Z,2.40
2018-02-23T17:16:42.536Z,2.10
2018-02-23T17:19:11.510Z,2.20
2018-02-23T17:21:41.880Z,2.30
2018-02-23T17:24:11.565Z,2.20
2018-02-23T17:26:40.559Z,2.10
2018-02-23T17:29:09.633Z,2.10
2018-02-23T17:31:39.397Z,2.10
2018-02-23T17:34:08.341Z,2.10
2018-02-23T17:36:38.321Z,2.10
2018-02-23T17:39:07.792Z,2.00
2018-02-23T17:41:37.578Z,1.90
2018-02-23T17:44:06.537Z,1.90
2018-02-23T17:46:37.611Z,1.90
2018-02-23T17:49:07.401Z,1.90
2018-02-23T17:51:36.429Z,1.80
2018-02-23T17:54:05.770Z,1.80
2018-02-23T17:56:34.817Z,1.80
2018-02-23T17:59:04.033Z,1.70
2018-02-23T18:01:33.859Z,1.70
2018-02-23T18:04:03.582Z,1.60
2018-02-23T18:06:33.390Z,1.60
2018-02-23T18:09:03.646Z,1.60
2018-02-23T18:11:33.385Z,1.50
2018-02-23T18:14:02.786Z,1.50
2018-02-23T18:16:32.571Z,1.40
2018-02-23T18:19:02.315Z,2.40
2018-02-23T18:21:31.317Z,1.50
2018-02-23T18:24:00.320Z,1.40
2018-02-23T18:26:29.331Z,1.40
2018-02-23T18:28:58.731Z,1.30
2018-02-23T18:31:28.523Z,1.30
2018-02-23T18:33:58.292Z,1.30
2018-02-23T18:36:27.703Z,1.20
2018-02-23T18:38:56.678Z,1.20
2018-02-23T18:41:26.068Z,1.20
2018-02-23T18:43:55.836Z,1.20
2018-02-23T18:46:25.180Z,1.20
2018-02-23T18:48:54.550Z,1.20
2018-02-23T18:51:23.570Z,1.10
2018-02-23T18:53:53.335Z,1.10
2018-02-23T18:56:22.317Z,1.00
2018-02-23T18:58:51.743Z,1.00
2018-02-23T19:01:20.875Z,1.00
2018-02-23T19:03:51.322Z,1.10
2018-02-23T19:06:20.364Z,1.00
2018-02-23T19:08:49.365Z,1.00
2018-02-23T19:11:18.385Z,1.00
2018-02-23T19:13:48.202Z,1.10
2018-02-23T19:16:17.185Z,1.00
2018-02-23T19:18:46.992Z,1.00
2018-02-23T19:21:16.766Z,0.90
2018-02-23T19:23:45.776Z,1.00
2018-02-23T19:26:14.770Z,0.80
2018-02-23T19:28:44.513Z,0.80
2018-02-23T19:31:13.494Z,0.80
2018-02-23T19:33:43.266Z,0.80
2018-02-23T19:36:12.408Z,0.70
2018-02-23T19:38:41.437Z,0.70
2018-02-23T19:41:10.423Z,0.80
2018-02-23T19:43:39.474Z,0.80
2018-02-23T19:46:08.482Z,0.80
2018-02-23T19:48:38.238Z,0.80
2018-02-23T19:51:07.262Z,0.60
2018-02-23T19:53:36.268Z,0.70
2018-02-23T19:56:05.642Z,0.70
2018-02-23T19:58:35.451Z,0.60
2018-02-23T20:01:05.392Z,0.60
2018-02-23T20:03:35.186Z,0.50
2018-02-23T20:06:05.005Z,0.50
2018-02-23T20:08:34.980Z,0.60
2018-02-23T20:11:04.441Z,0.50
2018-02-23T20:13:36.620Z,0.50
2018-02-23T20:16:06.103Z,0.50
2018-02-23T20:18:35.953Z,0.40
2018-02-23T20:21:05.713Z,0.40
2018-02-23T20:23:34.782Z,0.20
2018-02-23T20:26:04.115Z,0.40
2018-02-23T20:28:33.959Z,0.30
2018-02-23T20:31:03.392Z,0.30
2018-02-23T20:33:32.368Z,0.30
2018-02-23T20:36:01.354Z,0.30
2018-02-23T20:38:30.812Z,0.40
2018-02-23T20:41:00.748Z,0.30
2018-02-23T20:43:30.167Z,0.20
2018-02-23T20:45:59.207Z,0.20
2018-02-23T20:48:29.545Z,0.20
2018-02-23T20:50:58.622Z,0.10
2018-02-23T20:53:27.658Z,0.20
2018-02-23T20:56:00.125Z,0.20
2018-02-23T20:58:29.966Z,0.10
2018-02-23T21:00:58.989Z,0.10
2018-02-23T21:03:28.804Z,0.10
2018-02-23T21:05:57.861Z,0.00
2018-02-23T21:08:26.874Z,0.00
2018-02-23T21:10:55.904Z,0.10
2018-02-23T21:13:24.949Z,0.00
2018-02-23T21:15:53.960Z,0.00
2018-02-23T21:18:23.742Z,0.00
2018-02-23T21:20:53.524Z,0.10
2018-02-23T21:23:23.398Z,0.10
2018-02-23T21:25:52.830Z,0.00
2018-02-23T21:28:22.729Z,0.00
2018-02-23T21:30:51.825Z,-0.10
2018-02-23T21:33:21.614Z,-0.10
2018-02-23T21:35:50.716Z,-0.20
2018-02-23T21:38:19.720Z,-0.20
2018-02-23T21:40:48.776Z,-0.20
2018-02-23T21:43:18.663Z,-0.20
2018-02-23T21:45:47.678Z,-0.20
2018-02-23T21:48:16.699Z,-0.30
2018-02-23T21:50:46.088Z,-0.30
2018-02-23T21:53:15.052Z,-0.40
2018-02-23T21:55:44.848Z,-0.30
2018-02-23T21:58:13.848Z,-0.30
2018-02-23T22:00:43.232Z,-0.40
2018-02-23T22:03:12.215Z,-0.40
2018-02-23T22:05:42.686Z,-0.40
2018-02-23T22:08:11.672Z,-0.40
2018-02-23T22:10:40.734Z,-0.40
2018-02-23T22:13:09.878Z,-0.50
2018-02-23T22:15:39.738Z,-0.50
2018-02-23T22:18:09.490Z,-0.50
2018-02-23T22:20:38.561Z,-0.40
2018-02-23T22:23:07.562Z,-0.50
2018-02-23T22:25:37.296Z,-0.50
2018-02-23T22:28:06.294Z,-0.50
2018-02-23T22:30:36.045Z,-0.40
2018-02-23T22:33:06.554Z,-0.50
2018-02-23T22:35:36.280Z,-0.50
2018-02-23T22:38:05.628Z,-0.70
2018-02-23T22:40:34.605Z,-0.60
2018-02-23T22:43:04.409Z,-0.60
2018-02-23T22:45:33.787Z,-0.60
2018-02-23T22:48:04.233Z,-0.60
2018-02-23T22:50:34.066Z,-0.60
2018-02-23T22:53:03.804Z,-0.60
2018-02-23T22:55:33.545Z,-0.70
2018-02-23T22:58:02.514Z,-0.70
2018-02-23T23:00:33.239Z,-0.70
2018-02-23T23:03:02.289Z,-0.60
2018-02-23T23:05:31.239Z,-0.80
2018-02-23T23:08:00.976Z,-0.70
2018-02-23T23:10:29.945Z,-0.80
2018-02-23T23:12:59.668Z,-0.80
2018-02-23T23:15:28.646Z,-0.80
2018-02-23T23:17:57.619Z,-0.80
2018-02-23T23:20:26.637Z,-0.90
2018-02-23T23:22:55.616Z,-1.00
2018-02-23T23:25:24.591Z,-0.90
2018-02-23T23:27:53.505Z,-0.90
2018-02-23T23:30:22.546Z,-0.90
2018-02-23T23:32:52.408Z,-0.90
2018-02-23T23:35:21.403Z,-0.90
2018-02-23T23:37:50.844Z,-0.90
2018-02-23T23:40:19.824Z,-0.90
2018-02-23T23:42:48.796Z,-1.00
2018-02-23T23:45:19.244Z,-1.00
2018-02-23T23:47:48.703Z,-1.10
2018-02-23T23:50:19.106Z,-1.10
2018-02-23T23:52:48.133Z,-1.10
2018-02-23T23:55:17.065Z,-1.00
2018-02-23T23:57:46.808Z,-1.00
